Time;durP1;ratioP1;P1;durP2;ratioP2;P2;SDS_P1;SDS_P2;PMS_P1;PMS_P2;Temp;Humidity;BMP_temperature;BMP_pressure;BME280_temperature;BME280_humidity;BME280_pressure;Samples;Min_cycle;Max_cycle;Signal;HPM_P1;HPM_P2
2021/09/27 00:00:29;;;;;;;17.70;15.03;;;;;;;;;;5073243;28;20477;-61
2021/09/27 00:02:56;;;;;;;16.73;13.10;;;;;;;;;;5074094;28;20453;-61
2021/09/27 00:05:26;;;;;;;16.20;14.40;;;;;;;;;;5073402;28;20449;-61
2021/09/27 00:07:53;;;;;;;19.63;15.20;;;;;;;;;;5073021;28;20877;-60
2021/09/27 00:10:22;;;;;;;16.30;14.57;;;;;;;;;;5072766;28;20450;-60
2021/09/27 00:12:49;;;;;;;15.60;14.00;;;;;;;;;;5074392;28;20477;-60
2021/09/27 00:15:19;;;;;;;17.30;13.90;;;;;;;;;;5072824;28;20513;-60
2021/09/27 00:17:46;;;;;;;18.50;15.23;;;;;;;;;;5073002;28;20933;-61
2021/09/27 00:20:14;;;;;;;15.90;14.13;;;;;;;;;;5073168;28;20445;-59
2021/09/27 00:22:44;;;;;;;15.97;14.00;;;;;;;;;;5072949;28;20945;-60
2021/09/27 00:25:12;;;;;;;17.90;14.37;;;;;;;;;;5076700;28;20495;-60
2021/09/27 00:27:40;;;;;;;15.87;14.27;;;;;;;;;;5077330;28;20881;-60
2021/09/27 00:30:07;;;;;;;18.37;14.97;;;;;;;;;;5076817;28;20494;-62
2021/09/27 00:32:34;;;;;;;21.20;16.07;;;;;;;;;;5076811;28;20453;-61
2021/09/27 00:35:02;;;;;;;17.60;14.27;;;;;;;;;;5077115;28;20448;-60
2021/09/27 00:37:29;;;;;;;19.80;14.03;;;;;;;;;;5077108;28;20503;-61
2021/09/27 00:39:58;;;;;;;19.23;15.43;;;;;;;;;;5076994;28;20441;-61
2021/09/27 00:42:25;;;;;;;15.90;14.20;;;;;;;;;;5076697;28;20522;-61
2021/09/27 00:44:53;;;;;;;18.97;14.80;;;;;;;;;;5076583;28;20446;-61
2021/09/27 00:47:20;;;;;;;18.93;15.90;;;;;;;;;;5076594;28;20937;-61
2021/09/27 00:49:48;;;;;;;17.33;14.80;;;;;;;;;;5077009;28;20445;-60
2021/09/27 00:52:16;;;;;;;16.83;14.73;;;;;;;;;;5076771;28;20997;-60
2021/09/27 00:54:43;;;;;;;18.97;16.60;;;;;;;;;;5076587;28;20478;-60
2021/09/27 00:57:13;;;;;;;18.97;16.37;;;;;;;;;;5076363;28;20954;-61
2021/09/27 00:59:41;;;;;;;17.77;15.17;;;;;;;;;;5076637;28;20468;-61
2021/09/27 01:02:09;;;;;;;17.40;15.60;;;;;;;;;;5076198;28;21036;-61
2021/09/27 01:04:37;;;;;;;17.67;15.87;;;;;;;;;;5076448;28;20445;-60
2021/09/27 01:07:10;;;;;;;23.13;15.27;;;;;;;;;;5076435;28;20521;-60
2021/09/27 01:09:44;;;;;;;17.33;14.70;;;;;;;;;;5076533;28;20438;-61
2021/09/27 01:12:26;;;;;;;19.20;14.07;;;;;;;;;;5076366;28;20469;-60
2021/09/27 01:15:10;;;;;;;20.00;15.03;;;;;;;;;;5063459;28;20574;-60
2021/09/27 01:17:45;;;;;;;18.17;15.43;;;;;;;;;;5076372;28;20495;-60
2021/09/27 01:20:31;;;;;;;18.20;14.90;;;;;;;;;;5076107;28;20467;-61
2021/09/27 01:23:13;;;;;;;18.67;16.77;;;;;;;;;;5076567;28;20767;-61
2021/09/27 01:26:06;;;;;;;21.20;14.50;;;;;;;;;;5063842;28;20453;-59
2021/09/27 01:28:49;;;;;;;20.70;16.23;;;;;;;;;;5076269;28;20425;-60
2021/09/27 01:31:34;;;;;;;19.10;16.43;;;;;;;;;;5075682;28;20953;-60
2021/09/27 01:34:06;;;;;;;19.40;15.03;;;;;;;;;;5075521;28;20518;-59
2021/09/27 01:36:43;;;;;;;20.80;15.30;;;;;;;;;;5075332;28;20522;-60
2021/09/27 01:39:13;;;;;;;20.77;16.40;;;;;;;;;;5075652;28;20975;-60
2021/09/27 01:41:44;;;;;;;20.47;17.80;;;;;;;;;;5075444;28;21047;-59
2021/09/27 01:44:16;;;;;;;22.10;17.47;;;;;;;;;;5075938;28;20429;-61
2021/09/27 01:46:48;;;;;;;25.60;18.33;;;;;;;;;;5075991;28;20853;-60
2021/09/27 01:49:20;;;;;;;24.97;18.40;;;;;;;;;;5075599;28;20902;-61
2021/09/27 01:51:51;;;;;;;20.60;17.70;;;;;;;;;;5075551;28;20515;-61
2021/09/27 01:54:21;;;;;;;20.50;18.30;;;;;;;;;;5076041;28;20465;-60
2021/09/27 01:56:52;;;;;;;26.60;19.57;;;;;;;;;;5077344;28;20526;-60
2021/09/27 01:59:25;;;;;;;21.80;18.10;;;;;;;;;;5076024;28;20499;-60
2021/09/27 02:01:57;;;;;;;23.37;18.37;;;;;;;;;;5075266;28;20518;-60
2021/09/27 02:04:29;;;;;;;26.70;20.30;;;;;;;;;;5076045;28;20428;-61
2021/09/27 02:06:57;;;;;;;23.87;18.30;;;;;;;;;;5075942;28;20453;-61
2021/09/27 02:09:26;;;;;;;24.13;18.43;;;;;;;;;;5075510;28;20447;-60
2021/09/27 02:11:56;;;;;;;24.77;18.47;;;;;;;;;;5075576;28;20526;-59
2021/09/27 02:14:27;;;;;;;22.73;18.10;;;;;;;;;;5075322;28;20481;-59
2021/09/27 02:16:57;;;;;;;22.33;18.60;;;;;;;;;;5075241;28;20906;-62
2021/09/27 02:19:30;;;;;;;27.77;20.53;;;;;;;;;;5075112;28;20486;-61
2021/09/27 02:21:59;;;;;;;23.67;18.20;;;;;;;;;;5075794;28;20470;-60
2021/09/27 02:24:39;;;;;;;24.47;19.10;;;;;;;;;;5080796;28;20794;-60
2021/09/27 02:27:06;;;;;;;24.27;18.60;;;;;;;;;;5075180;28;20426;-60
2021/09/27 02:29:34;;;;;;;23.83;18.50;;;;;;;;;;5075033;28;20445;-61
2021/09/27 02:32:04;;;;;;;25.47;19.57;;;;;;;;;;5074882;28;20473;-60
2021/09/27 02:34:35;;;;;;;22.60;18.40;;;;;;;;;;5074464;28;20538;-61
2021/09/27 02:37:04;;;;;;;28.07;19.50;;;;;;;;;;5074611;28;20426;-60
2021/09/27 02:39:33;;;;;;;27.47;18.60;;;;;;;;;;5074399;28;20863;-60
2021/09/27 02:42:02;;;;;;;24.90;19.20;;;;;;;;;;5074729;28;20472;-60
2021/09/27 02:44:29;;;;;;;23.70;16.97;;;;;;;;;;5074819;28;20488;-60
2021/09/27 02:46:57;;;;;;;23.83;19.70;;;;;;;;;;5073771;28;20450;-61
2021/09/27 02:49:27;;;;;;;29.53;19.23;;;;;;;;;;5074286;28;20498;-60
2021/09/27 02:51:57;;;;;;;22.63;17.87;;;;;;;;;;5074370;28;20465;-60
2021/09/27 02:54:30;;;;;;;24.13;18.10;;;;;;;;;;5074231;28;21068;-60
2021/09/27 02:57:03;;;;;;;23.00;17.20;;;;;;;;;;5074176;28;20487;-60
2021/09/27 02:59:36;;;;;;;22.80;17.97;;;;;;;;;;5074134;28;20921;-61
2021/09/27 03:02:06;;;;;;;24.47;17.10;;;;;;;;;;5073844;28;21003;-59
2021/09/27 03:04:37;;;;;;;26.90;17.90;;;;;;;;;;5074076;28;20453;-60
2021/09/27 03:07:12;;;;;;;22.23;18.07;;;;;;;;;;5073701;28;20998;-60
2021/09/27 03:09:46;;;;;;;21.67;18.40;;;;;;;;;;5074077;28;20426;-60
2021/09/27 03:12:23;;;;;;;23.93;19.23;;;;;;;;;;5073970;28;20882;-60
2021/09/27 03:15:09;;;;;;;22.63;17.40;;;;;;;;;;5073702;28;20515;-60
2021/09/27 03:17:40;;;;;;;20.17;17.17;;;;;;;;;;5073696;28;20450;-61
2021/09/27 03:20:23;;;;;;;19.90;16.70;;;;;;;;;;5074021;28;20494;-60
2021/09/27 03:22:56;;;;;;;21.77;17.73;;;;;;;;;;5073573;28;20502;-60
2021/09/27 03:25:28;;;;;;;20.30;16.77;;;;;;;;;;5073923;28;20434;-59
2021/09/27 03:28:00;;;;;;;21.97;17.40;;;;;;;;;;5073764;28;20471;-59
2021/09/27 03:30:33;;;;;;;21.80;17.43;;;;;;;;;;5073537;28;20465;-60
2021/09/27 03:33:05;;;;;;;18.00;15.60;;;;;;;;;;5073671;28;20437;-60
2021/09/27 03:35:39;;;;;;;21.27;17.10;;;;;;;;;;5073647;28;20511;-60
2021/09/27 03:38:10;;;;;;;18.90;17.00;;;;;;;;;;5073515;28;20879;-60
2021/09/27 03:40:44;;;;;;;22.90;18.07;;;;;;;;;;5073527;28;20466;-60
2021/09/27 03:43:15;;;;;;;18.27;16.37;;;;;;;;;;5073644;28;20472;-60
2021/09/27 03:45:47;;;;;;;20.43;16.63;;;;;;;;;;5073943;28;20926;-61
2021/09/27 03:48:17;;;;;;;21.40;16.60;;;;;;;;;;5074160;28;20430;-60
2021/09/27 03:50:46;;;;;;;21.67;17.10;;;;;;;;;;5073225;28;20521;-60
2021/09/27 03:53:17;;;;;;;21.30;18.43;;;;;;;;;;5073453;28;20441;-59
2021/09/27 03:55:47;;;;;;;23.40;18.67;;;;;;;;;;5072978;28;20595;-59
2021/09/27 03:58:16;;;;;;;21.13;18.57;;;;;;;;;;5073806;28;20433;-60
2021/09/27 04:00:47;;;;;;;20.63;16.83;;;;;;;;;;5072866;28;20969;-58
2021/09/27 04:03:21;;;;;;;22.17;18.80;;;;;;;;;;5073301;28;20533;-59
2021/09/27 04:08:44;;;;;;;24.03;19.07;;;;;;;;;;5091223;27;20561;-60
2021/09/27 04:11:16;;;;;;;20.43;18.10;;;;;;;;;;5090445;28;20872;-60
2021/09/27 04:13:45;;;;;;;26.80;21.67;;;;;;;;;;5090428;28;20483;-60
2021/09/27 04:16:17;;;;;;;22.50;19.90;;;;;;;;;;5090321;28;20954;-59
2021/09/27 04:18:52;;;;;;;23.90;19.03;;;;;;;;;;5090726;28;20431;-59
2021/09/27 04:21:21;;;;;;;22.43;20.13;;;;;;;;;;5090469;28;20464;-59
2021/09/27 04:24:04;;;;;;;25.83;20.57;;;;;;;;;;5090513;28;20437;-59
2021/09/27 04:26:38;;;;;;;24.57;18.90;;;;;;;;;;5090114;28;20967;-60
2021/09/27 04:29:23;;;;;;;24.10;21.50;;;;;;;;;;5090574;28;20428;-60
2021/09/27 04:31:54;;;;;;;25.03;20.50;;;;;;;;;;5089987;28;20466;-59
2021/09/27 04:34:27;;;;;;;25.27;19.70;;;;;;;;;;5090352;28;20482;-59
2021/09/27 04:36:56;;;;;;;23.50;20.73;;;;;;;;;;5090487;28;20471;-60
2021/09/27 04:39:28;;;;;;;27.53;21.57;;;;;;;;;;5090185;28;20484;-60
2021/09/27 04:42:00;;;;;;;25.00;21.40;;;;;;;;;;5089837;28;20866;-59
2021/09/27 04:44:40;;;;;;;27.43;21.27;;;;;;;;;;5090169;28;20421;-60
2021/09/27 04:47:10;;;;;;;27.27;21.63;;;;;;;;;;5090064;28;20514;-60
2021/09/27 04:49:42;;;;;;;28.53;21.37;;;;;;;;;;5090226;28;20832;-59
2021/09/27 04:52:12;;;;;;;25.83;22.10;;;;;;;;;;5090760;28;20462;-59
2021/09/27 04:54:51;;;;;;;26.53;21.70;;;;;;;;;;5091868;28;20553;-60
2021/09/27 04:57:25;;;;;;;26.83;20.10;;;;;;;;;;5089558;28;20456;-60
2021/09/27 04:59:58;;;;;;;26.20;20.90;;;;;;;;;;5089780;28;20435;-60
2021/09/27 05:02:31;;;;;;;29.53;21.70;;;;;;;;;;5088927;28;20464;-59
2021/09/27 05:05:03;;;;;;;24.67;20.20;;;;;;;;;;5089745;28;20509;-60
2021/09/27 05:07:45;;;;;;;29.87;21.30;;;;;;;;;;5089083;28;20587;-59
2021/09/27 05:10:22;;;;;;;24.93;20.73;;;;;;;;;;5089766;28;20491;-60
2021/09/27 05:13:07;;;;;;;27.07;20.50;;;;;;;;;;5089563;28;20507;-59
2021/09/27 05:15:47;;;;;;;28.50;21.03;;;;;;;;;;5089214;28;20445;-60
2021/09/27 05:18:34;;;;;;;25.13;19.90;;;;;;;;;;5085784;28;20571;-59
2021/09/27 05:21:16;;;;;;;27.30;20.40;;;;;;;;;;5049852;28;20471;-60
2021/09/27 05:23:48;;;;;;;24.30;20.40;;;;;;;;;;5075899;28;20487;-60
2021/09/27 05:26:36;;;;;;;29.17;22.20;;;;;;;;;;5075450;28;20783;-59
2021/09/27 05:29:07;;;;;;;23.53;20.33;;;;;;;;;;5076441;28;20474;-59
2021/09/27 05:31:55;;;;;;;29.03;22.33;;;;;;;;;;5075194;28;20515;-60
2021/09/27 05:34:28;;;;;;;26.17;22.17;;;;;;;;;;5070475;28;20457;-59
2021/09/27 05:37:02;;;;;;;29.40;22.73;;;;;;;;;;5075332;28;20422;-59
2021/09/27 05:39:38;;;;;;;26.80;21.43;;;;;;;;;;5075680;28;20434;-58
2021/09/27 05:42:12;;;;;;;26.60;22.40;;;;;;;;;;5075606;28;20472;-59
2021/09/27 05:44:47;;;;;;;27.53;20.67;;;;;;;;;;5075240;28;20420;-60
2021/09/27 05:47:21;;;;;;;25.03;21.40;;;;;;;;;;5075431;28;20533;-59
2021/09/27 05:49:55;;;;;;;24.50;20.30;;;;;;;;;;5075625;28;20915;-59
2021/09/27 05:52:25;;;;;;;25.70;22.67;;;;;;;;;;5075567;28;20569;-59
2021/09/27 05:54:58;;;;;;;27.83;20.80;;;;;;;;;;5075100;28;20449;-60
2021/09/27 05:57:31;;;;;;;23.87;20.13;;;;;;;;;;5075792;28;20433;-58
2021/09/27 06:00:02;;;;;;;29.70;21.47;;;;;;;;;;5075096;28;20432;-59
2021/09/27 06:02:37;;;;;;;25.10;21.20;;;;;;;;;;5075833;28;20505;-59
2021/09/27 06:05:11;;;;;;;28.77;21.03;;;;;;;;;;5075685;28;20437;-62
2021/09/27 06:07:42;;;;;;;26.43;21.73;;;;;;;;;;5075567;28;20484;-58
2021/09/27 06:10:13;;;;;;;27.80;22.47;;;;;;;;;;5075011;28;20434;-59
2021/09/27 06:12:45;;;;;;;24.20;21.07;;;;;;;;;;5105632;22;20457;-57
2021/09/27 06:15:13;;;;;;;25.40;20.80;;;;;;;;;;5014843;28;20966;-59
2021/09/27 06:17:47;;;;;;;27.57;21.87;;;;;;;;;;5014984;28;20450;-57
2021/09/27 06:20:18;;;;;;;25.37;21.50;;;;;;;;;;5014997;28;20506;-57
2021/09/27 06:22:53;;;;;;;25.90;21.77;;;;;;;;;;5014851;28;20916;-57
2021/09/27 06:25:24;;;;;;;27.27;20.93;;;;;;;;;;5014920;28;20477;-59
2021/09/27 06:27:59;;;;;;;26.20;20.40;;;;;;;;;;5014533;28;20464;-57
2021/09/27 06:30:30;;;;;;;25.27;20.87;;;;;;;;;;5013958;28;20440;-59
2021/09/27 06:33:02;;;;;;;25.20;20.40;;;;;;;;;;5014849;28;20532;-57
2021/09/27 06:35:32;;;;;;;26.30;21.40;;;;;;;;;;5014838;28;20432;-57
2021/09/27 06:38:00;;;;;;;24.83;20.60;;;;;;;;;;5014966;28;20450;-58
2021/09/27 06:40:28;;;;;;;22.23;19.87;;;;;;;;;;5014717;28;20454;-57
2021/09/27 06:42:57;;;;;;;22.13;19.47;;;;;;;;;;5014324;28;20829;-56
2021/09/27 06:45:24;;;;;;;26.50;19.80;;;;;;;;;;5014161;28;20523;-56
2021/09/27 06:47:51;;;;;;;24.00;19.87;;;;;;;;;;5014517;28;20482;-56
2021/09/27 06:50:19;;;;;;;22.43;20.13;;;;;;;;;;5014490;28;20459;-56
2021/09/27 06:52:46;;;;;;;23.00;20.60;;;;;;;;;;5014530;28;20482;-56
2021/09/27 06:55:13;;;;;;;19.93;17.70;;;;;;;;;;5015001;28;20453;-57
2021/09/27 06:57:41;;;;;;;18.77;16.87;;;;;;;;;;5014237;28;20476;-56
2021/09/27 07:00:12;;;;;;;18.13;16.33;;;;;;;;;;5014103;28;20447;-57
2021/09/27 07:02:39;;;;;;;19.23;17.20;;;;;;;;;;5014004;28;20509;-57
2021/09/27 07:05:07;;;;;;;20.00;17.30;;;;;;;;;;5014462;28;20525;-57
2021/09/27 07:07:35;;;;;;;18.10;16.20;;;;;;;;;;5014269;28;20576;-57
2021/09/27 07:10:02;;;;;;;18.40;16.20;;;;;;;;;;5014248;28;20480;-56
2021/09/27 07:12:29;;;;;;;18.67;16.67;;;;;;;;;;5013769;28;21003;-57
2021/09/27 07:14:57;;;;;;;18.20;16.37;;;;;;;;;;5014087;28;20450;-56
2021/09/27 07:17:25;;;;;;;22.73;16.63;;;;;;;;;;5013797;28;20497;-57
2021/09/27 07:19:53;;;;;;;19.00;15.70;;;;;;;;;;5013696;28;20448;-58
2021/09/27 07:22:20;;;;;;;17.10;15.50;;;;;;;;;;5013716;28;20457;-56
2021/09/27 07:24:47;;;;;;;18.10;16.20;;;;;;;;;;5014016;28;20470;-58
2021/09/27 07:27:14;;;;;;;17.33;15.53;;;;;;;;;;5013936;28;20506;-58
2021/09/27 07:29:42;;;;;;;16.90;15.20;;;;;;;;;;5013671;28;20859;-58
2021/09/27 07:32:09;;;;;;;16.60;14.90;;;;;;;;;;5013964;28;20457;-58
2021/09/27 07:34:38;;;;;;;15.93;14.43;;;;;;;;;;5013848;28;20465;-58
2021/09/27 07:37:05;;;;;;;17.33;14.90;;;;;;;;;;5014029;28;20457;-57
2021/09/27 07:39:33;;;;;;;18.10;16.33;;;;;;;;;;5013643;28;20442;-56
2021/09/27 07:42:00;;;;;;;16.33;14.60;;;;;;;;;;5013284;28;20492;-58
2021/09/27 07:44:27;;;;;;;16.50;14.73;;;;;;;;;;5013588;28;20527;-58
2021/09/27 07:46:55;;;;;;;16.43;14.20;;;;;;;;;;5013428;28;20500;-56
2021/09/27 07:49:22;;;;;;;15.50;13.90;;;;;;;;;;5013559;28;20894;-59
2021/09/27 07:51:53;;;;;;;15.97;14.47;;;;;;;;;;5013241;28;20454;-57
2021/09/27 07:54:20;;;;;;;19.07;17.17;;;;;;;;;;5013382;28;21012;-57
2021/09/27 07:56:47;;;;;;;15.80;14.40;;;;;;;;;;5013707;28;20973;-57
2021/09/27 07:59:15;;;;;;;16.57;15.00;;;;;;;;;;5013595;28;20442;-57
2021/09/27 08:01:42;;;;;;;15.67;14.07;;;;;;;;;;5013603;28;20820;-56
2021/09/27 08:04:10;;;;;;;15.63;14.03;;;;;;;;;;5013142;28;20532;-57
2021/09/27 08:06:37;;;;;;;17.93;16.03;;;;;;;;;;5014582;28;20537;-57
2021/09/27 08:09:06;;;;;;;16.20;14.20;;;;;;;;;;5013114;28;20505;-57
2021/09/27 08:11:34;;;;;;;15.27;13.77;;;;;;;;;;5014381;28;20454;-57
2021/09/27 08:14:01;;;;;;;15.10;13.70;;;;;;;;;;5012936;28;20585;-58
2021/09/27 08:16:31;;;;;;;16.07;14.47;;;;;;;;;;5013391;28;20826;-57
2021/09/27 08:18:58;;;;;;;16.67;15.07;;;;;;;;;;5013272;28;20450;-57
2021/09/27 08:21:25;;;;;;;15.37;13.80;;;;;;;;;;5012850;28;20458;-57
2021/09/27 08:23:53;;;;;;;16.33;14.67;;;;;;;;;;5012678;28;20536;-57
2021/09/27 08:26:22;;;;;;;17.37;15.10;;;;;;;;;;5013226;28;20469;-57
2021/09/27 08:28:49;;;;;;;16.30;14.67;;;;;;;;;;5012841;28;20481;-57
2021/09/27 08:31:19;;;;;;;15.73;14.13;;;;;;;;;;5013232;28;20449;-57
2021/09/27 08:33:47;;;;;;;14.77;13.33;;;;;;;;;;5013071;28;20516;-58
2021/09/27 08:36:16;;;;;;;15.97;14.37;;;;;;;;;;5012905;28;20858;-57
2021/09/27 08:38:44;;;;;;;15.30;13.70;;;;;;;;;;5012804;28;20509;-58
2021/09/27 08:41:16;;;;;;;13.97;12.67;;;;;;;;;;5013248;28;20455;-58
2021/09/27 08:44:01;;;;;;;16.33;13.80;;;;;;;;;;5012647;28;20463;-58
2021/09/27 08:46:32;;;;;;;18.47;16.00;;;;;;;;;;5014020;28;20450;-58
2021/09/27 08:49:04;;;;;;;15.23;13.77;;;;;;;;;;5012690;28;20465;-57
2021/09/27 08:51:33;;;;;;;14.80;12.43;;;;;;;;;;5012863;28;20434;-58
2021/09/27 08:54:01;;;;;;;15.40;14.00;;;;;;;;;;5014379;28;20473;-58
2021/09/27 08:56:31;;;;;;;13.67;12.23;;;;;;;;;;5017121;28;20438;-58
2021/09/27 08:59:02;;;;;;;16.17;14.57;;;;;;;;;;5016857;28;20450;-58
2021/09/27 09:01:35;;;;;;;15.60;14.10;;;;;;;;;;5016904;28;20430;-58
2021/09/27 09:04:07;;;;;;;15.67;14.07;;;;;;;;;;5016628;28;20536;-57
2021/09/27 09:06:38;;;;;;;18.37;14.60;;;;;;;;;;5016695;28;20874;-56
2021/09/27 09:09:09;;;;;;;16.30;14.60;;;;;;;;;;5016569;28;20478;-58
2021/09/27 09:11:39;;;;;;;15.07;13.67;;;;;;;;;;5016215;28;20439;-57
2021/09/27 09:14:12;;;;;;;14.60;13.37;;;;;;;;;;5015993;28;20493;-57
2021/09/27 09:16:40;;;;;;;14.00;12.70;;;;;;;;;;5016474;28;20845;-57
2021/09/27 09:19:10;;;;;;;14.00;12.70;;;;;;;;;;5016832;28;20914;-57
2021/09/27 09:21:38;;;;;;;16.30;13.90;;;;;;;;;;5015940;28;20461;-58
2021/09/27 09:24:07;;;;;;;13.77;12.40;;;;;;;;;;5016182;28;20819;-61
2021/09/27 09:26:35;;;;;;;14.60;13.20;;;;;;;;;;5018391;28;20450;-62
2021/09/27 09:29:03;;;;;;;13.60;12.20;;;;;;;;;;5016295;28;20489;-57
2021/09/27 09:31:34;;;;;;;14.50;13.30;;;;;;;;;;5016443;28;20454;-58
2021/09/27 09:34:05;;;;;;;13.23;12.00;;;;;;;;;;5015952;28;20477;-57
2021/09/27 09:36:37;;;;;;;12.57;11.37;;;;;;;;;;5016042;28;20527;-57
2021/09/27 09:39:12;;;;;;;16.40;11.83;;;;;;;;;;5015914;28;20434;-58
2021/09/27 09:41:45;;;;;;;13.77;12.47;;;;;;;;;;5015770;28;20910;-58
2021/09/27 09:44:21;;;;;;;15.20;12.90;;;;;;;;;;5015188;28;20528;-58
2021/09/27 09:46:58;;;;;;;13.83;12.63;;;;;;;;;;5015319;28;20441;-57
2021/09/27 09:49:29;;;;;;;13.87;11.47;;;;;;;;;;5015511;28;20515;-57
2021/09/27 09:52:00;;;;;;;14.30;12.80;;;;;;;;;;5015471;28;20438;-57
2021/09/27 09:54:28;;;;;;;12.50;11.30;;;;;;;;;;5015450;28;20833;-57
2021/09/27 09:57:02;;;;;;;24.17;12.50;;;;;;;;;;5015544;28;20499;-57
2021/09/27 09:59:31;;;;;;;18.73;11.40;;;;;;;;;;5015214;28;20488;-58
2021/09/27 10:01:59;;;;;;;12.67;11.37;;;;;;;;;;5015152;28;20942;-58
2021/09/27 10:04:30;;;;;;;12.97;11.57;;;;;;;;;;5015409;28;20613;-58
2021/09/27 10:07:05;;;;;;;11.80;10.70;;;;;;;;;;5015190;28;20455;-57
2021/09/27 10:09:34;;;;;;;12.37;11.07;;;;;;;;;;5015261;28;20540;-60
2021/09/27 10:12:02;;;;;;;12.20;11.00;;;;;;;;;;5015109;28;20516;-58
2021/09/27 10:14:37;;;;;;;18.10;11.63;;;;;;;;;;5014589;28;20977;-59
2021/09/27 10:17:26;;;;;;;10.60;9.60;;;;;;;;;;5014637;28;20449;-59
2021/09/27 10:19:57;;;;;;;11.50;10.40;;;;;;;;;;5014807;28;20431;-58
2021/09/27 10:22:26;;;;;;;11.17;9.90;;;;;;;;;;5015487;28;20450;-57
2021/09/27 10:24:55;;;;;;;10.53;9.53;;;;;;;;;;5014673;28;20454;-58
2021/09/27 10:27:26;;;;;;;10.47;9.47;;;;;;;;;;5014622;28;20446;-58
2021/09/27 10:29:55;;;;;;;10.33;9.27;;;;;;;;;;5014807;28;20478;-58
2021/09/27 10:32:30;;;;;;;9.67;8.77;;;;;;;;;;5014615;28;20446;-59
2021/09/27 10:35:00;;;;;;;10.83;9.20;;;;;;;;;;5014722;28;20484;-57
2021/09/27 10:37:28;;;;;;;9.10;8.13;;;;;;;;;;5015327;28;20466;-57
2021/09/27 10:39:57;;;;;;;9.00;8.20;;;;;;;;;;5014359;28;20474;-57
2021/09/27 10:42:28;;;;;;;8.70;7.80;;;;;;;;;;5014410;28;20450;-58
2021/09/27 10:44:56;;;;;;;10.40;9.30;;;;;;;;;;5014177;28;20515;-59
2021/09/27 10:47:24;;;;;;;8.07;7.30;;;;;;;;;;5014033;28;20450;-58
2021/09/27 10:49:55;;;;;;;7.70;6.90;;;;;;;;;;5014472;28;20533;-58
2021/09/27 10:52:30;;;;;;;7.83;6.77;;;;;;;;;;5014269;28;20461;-59
2021/09/27 10:54:59;;;;;;;7.20;6.50;;;;;;;;;;5014248;28;20997;-59
2021/09/27 10:57:35;;;;;;;7.70;6.90;;;;;;;;;;5014475;28;20446;-59
2021/09/27 11:00:05;;;;;;;7.57;6.60;;;;;;;;;;5014842;28;20431;-58
2021/09/27 11:02:34;;;;;;;7.17;6.47;;;;;;;;;;5014332;28;20436;-59
2021/09/27 11:05:07;;;;;;;7.47;6.70;;;;;;;;;;5014635;28;20488;-58
2021/09/27 11:07:41;;;;;;;10.30;7.17;;;;;;;;;;5014270;28;20450;-59
2021/09/27 11:10:16;;;;;;;8.23;7.53;;;;;;;;;;5014411;28;20465;-58
2021/09/27 11:12:44;;;;;;;7.07;6.47;;;;;;;;;;5014098;28;20497;-58
2021/09/27 11:15:17;;;;;;;8.57;7.77;;;;;;;;;;5014878;28;20509;-58
2021/09/27 11:17:47;;;;;;;7.20;6.27;;;;;;;;;;5014447;28;20841;-56
2021/09/27 11:20:44;;;;;;;7.13;6.53;;;;;;;;;;5014243;28;20442;-56
2021/09/27 11:23:24;;;;;;;11.07;6.50;;;;;;;;;;5013439;28;20840;-57
2021/09/27 11:26:05;;;;;;;6.30;5.77;;;;;;;;;;5013477;28;20449;-58
2021/09/27 11:28:43;;;;;;;8.50;6.83;;;;;;;;;;5013979;28;20497;-57
2021/09/27 11:31:33;;;;;;;9.20;6.43;;;;;;;;;;5013527;28;20915;-57
2021/09/27 11:34:01;;;;;;;7.80;7.00;;;;;;;;;;5013768;28;20616;-58
2021/09/27 11:36:34;;;;;;;9.43;7.30;;;;;;;;;;5013527;28;20508;-57
2021/09/27 11:39:19;;;;;;;7.70;7.03;;;;;;;;;;5013431;28;20493;-58
2021/09/27 11:42:08;;;;;;;10.23;6.30;;;;;;;;;;5014050;28;20477;-57
2021/09/27 11:44:39;;;;;;;8.53;6.63;;;;;;;;;;5014004;28;20582;-57
2021/09/27 11:47:10;;;;;;;6.37;5.77;;;;;;;;;;5014355;28;20431;-57
2021/09/27 11:49:57;;;;;;;6.77;6.13;;;;;;;;;;5014349;28;20501;-57
2021/09/27 11:52:36;;;;;;;7.60;6.30;;;;;;;;;;5013826;28;20509;-59
2021/09/27 11:55:05;;;;;;;5.93;5.33;;;;;;;;;;5013185;28;20476;-57
2021/09/27 11:57:37;;;;;;;7.10;6.30;;;;;;;;;;5013441;28;20446;-58
2021/09/27 12:00:09;;;;;;;6.30;5.70;;;;;;;;;;5015310;28;20435;-58
2021/09/27 12:02:43;;;;;;;6.37;5.77;;;;;;;;;;5014073;28;20444;-58
2021/09/27 12:05:21;;;;;;;8.50;6.07;;;;;;;;;;5013510;28;20435;-57
2021/09/27 12:07:51;;;;;;;6.80;5.63;;;;;;;;;;5013116;28;20593;-58
2021/09/27 12:10:24;;;;;;;6.73;6.00;;;;;;;;;;5012987;28;20663;-57
2021/09/27 12:12:53;;;;;;;7.70;5.67;;;;;;;;;;5012989;28;21017;-58
2021/09/27 12:15:25;;;;;;;6.13;5.50;;;;;;;;;;5052363;22;20555;-60
2021/09/27 12:17:52;;;;;;;12.23;5.73;;;;;;;;;;5034072;28;20434;-61
2021/09/27 12:20:20;;;;;;;5.90;5.40;;;;;;;;;;5032798;28;20994;-61
2021/09/27 12:22:49;;;;;;;5.90;5.30;;;;;;;;;;5032853;28;20519;-61
2021/09/27 12:25:20;;;;;;;5.63;4.93;;;;;;;;;;5032904;28;20496;-61
2021/09/27 12:27:52;;;;;;;6.00;5.40;;;;;;;;;;5034259;28;20495;-61
2021/09/27 12:30:22;;;;;;;7.13;6.43;;;;;;;;;;5036161;28;20476;-60
2021/09/27 12:32:54;;;;;;;9.07;6.23;;;;;;;;;;5036864;28;20503;-60
2021/09/27 12:35:23;;;;;;;6.10;5.50;;;;;;;;;;5036555;28;20472;-61
2021/09/27 12:37:52;;;;;;;7.63;6.53;;;;;;;;;;5036776;28;20544;-59
2021/09/27 12:40:21;;;;;;;6.67;5.73;;;;;;;;;;5036603;28;20476;-61
2021/09/27 12:42:50;;;;;;;7.50;6.53;;;;;;;;;;5036302;28;20480;-60
2021/09/27 12:45:20;;;;;;;7.13;6.37;;;;;;;;;;5036314;28;20522;-60
2021/09/27 12:47:48;;;;;;;8.10;6.87;;;;;;;;;;5036538;28;20433;-60
2021/09/27 12:50:19;;;;;;;8.97;7.03;;;;;;;;;;5036287;28;20477;-61
2021/09/27 12:52:47;;;;;;;7.93;6.70;;;;;;;;;;5036545;28;20433;-59
2021/09/27 12:55:17;;;;;;;7.13;6.43;;;;;;;;;;5036507;28;20465;-60
2021/09/27 12:57:48;;;;;;;7.67;6.07;;;;;;;;;;5036163;28;20854;-60
2021/09/27 13:00:18;;;;;;;6.23;5.47;;;;;;;;;;5037075;28;20434;-60
2021/09/27 13:02:46;;;;;;;7.60;6.90;;;;;;;;;;5037076;28;20441;-59
2021/09/27 13:05:15;;;;;;;6.70;6.20;;;;;;;;;;5037375;28;20519;-60
2021/09/27 13:07:45;;;;;;;8.00;7.20;;;;;;;;;;5037194;28;20859;-60
2021/09/27 13:10:21;;;;;;;13.50;12.20;;;;;;;;;;5036324;28;20511;-59
2021/09/27 13:12:59;;;;;;;13.67;12.30;;;;;;;;;;5036908;28;20441;-60
2021/09/27 13:15:29;;;;;;;12.07;7.87;;;;;;;;;;5036321;28;20535;-61
2021/09/27 13:18:00;;;;;;;7.37;6.50;;;;;;;;;;5038004;28;20499;-61
2021/09/27 13:20:30;;;;;;;6.87;6.27;;;;;;;;;;5037068;28;20468;-61
2021/09/27 13:22:59;;;;;;;7.30;6.10;;;;;;;;;;5036226;28;20449;-61
2021/09/27 13:25:29;;;;;;;7.90;7.13;;;;;;;;;;5035845;28;20469;-60
2021/09/27 13:27:58;;;;;;;10.23;8.53;;;;;;;;;;5036556;28;20455;-62
2021/09/27 13:30:27;;;;;;;8.23;7.13;;;;;;;;;;5035712;28;20493;-61
2021/09/27 13:32:56;;;;;;;8.90;8.10;;;;;;;;;;5035501;28;20446;-61
2021/09/27 13:35:31;;;;;;;8.70;8.00;;;;;;;;;;5035424;28;20466;-61
2021/09/27 13:38:08;;;;;;;12.10;7.90;;;;;;;;;;5035820;28;20473;-60
2021/09/27 13:40:36;;;;;;;7.60;6.90;;;;;;;;;;5035019;28;20517;-59
2021/09/27 13:43:10;;;;;;;7.73;7.03;;;;;;;;;;5035491;28;20449;-58
2021/09/27 13:45:38;;;;;;;8.50;7.80;;;;;;;;;;5035951;28;20466;-61
2021/09/27 13:48:05;;;;;;;8.40;7.53;;;;;;;;;;5034986;28;20960;-60
2021/09/27 13:50:33;;;;;;;8.50;7.70;;;;;;;;;;5034888;28;21001;-62
2021/09/27 13:53:03;;;;;;;9.23;8.50;;;;;;;;;;5035446;28;20442;-59
2021/09/27 13:55:32;;;;;;;10.77;8.13;;;;;;;;;;5035247;28;20513;-63
2021/09/27 13:57:59;;;;;;;9.13;8.23;;;;;;;;;;5034846;28;20938;-61
2021/09/27 14:00:27;;;;;;;9.07;8.07;;;;;;;;;;5034905;28;20979;-61
2021/09/27 14:02:54;;;;;;;9.13;8.20;;;;;;;;;;5034537;28;20491;-61
2021/09/27 14:05:21;;;;;;;13.53;8.77;;;;;;;;;;5034749;28;20523;-60
2021/09/27 14:07:48;;;;;;;8.83;8.03;;;;;;;;;;5034849;28;20509;-58
2021/09/27 14:10:16;;;;;;;13.40;12.30;;;;;;;;;;5034531;28;20919;-62
2021/09/27 14:12:44;;;;;;;13.97;9.50;;;;;;;;;;5035039;28;20441;-61
2021/09/27 14:15:12;;;;;;;9.63;8.63;;;;;;;;;;5034335;28;20527;-60
2021/09/27 14:17:39;;;;;;;13.13;10.03;;;;;;;;;;5034763;28;20432;-61
2021/09/27 14:20:08;;;;;;;10.47;9.47;;;;;;;;;;5034543;28;20450;-60
2021/09/27 14:22:35;;;;;;;10.27;9.40;;;;;;;;;;5035216;28;20571;-60
2021/09/27 14:25:03;;;;;;;9.67;8.80;;;;;;;;;;5034507;28;20448;-61
2021/09/27 14:27:30;;;;;;;8.60;7.80;;;;;;;;;;5034400;28;21000;-61
2021/09/27 14:29:59;;;;;;;10.77;9.80;;;;;;;;;;5034352;28;20534;-61
2021/09/27 14:32:28;;;;;;;9.57;8.77;;;;;;;;;;5034462;28;20613;-62
2021/09/27 14:34:55;;;;;;;9.90;9.00;;;;;;;;;;5034071;28;20571;-60
2021/09/27 14:37:22;;;;;;;9.93;8.93;;;;;;;;;;5034098;28;20503;-60
2021/09/27 14:39:50;;;;;;;9.93;8.90;;;;;;;;;;5033911;28;20453;-62
2021/09/27 14:42:17;;;;;;;13.93;9.33;;;;;;;;;;5033931;28;20500;-61
2021/09/27 14:44:44;;;;;;;9.07;8.17;;;;;;;;;;5034552;28;20499;-62
2021/09/27 14:47:18;;;;;;;9.00;8.17;;;;;;;;;;5034275;28;20446;-61
2021/09/27 14:49:46;;;;;;;9.50;7.50;;;;;;;;;;5034422;28;20435;-61